sensor_id;sensor_type;location;lat;lon;timestamp;P1;durP1;ratioP1;P2;durP2;ratioP2
64282;SDS011;50497;50.720;-2.084;2022-09-13T00:01:32;7.13;;;3.10;;
64282;SDS011;50497;50.720;-2.084;2022-09-13T00:03:57;6.85;;;2.92;;
64282;SDS011;50497;50.720;-2.084;2022-09-13T00:06:23;6.40;;;2.85;;
64282;SDS011;50497;50.720;-2.084;2022-09-13T00:08:48;7.15;;;3.03;;
64282;SDS011;50497;50.720;-2.084;2022-09-13T00:11:19;7.13;;;3.00;;
64282;SDS011;50497;50.720;-2.084;2022-09-13T00:13:47;6.22;;;3.25;;
64282;SDS011;50497;50.720;-2.084;2022-09-13T00:16:14;8.13;;;3.42;;
64282;SDS011;50497;50.720;-2.084;2022-09-13T00:18:41;7.05;;;2.95;;
64282;SDS011;50497;50.720;-2.084;2022-09-13T00:21:08;7.38;;;3.13;;
64282;SDS011;50497;50.720;-2.084;2022-09-13T00:23:38;6.55;;;2.83;;
64282;SDS011;50497;50.720;-2.084;2022-09-13T00:26:08;6.25;;;3.00;;
64282;SDS011;50497;50.720;-2.084;2022-09-13T00:28:36;6.47;;;2.92;;
64282;SDS011;50497;50.720;-2.084;2022-09-13T00:31:06;8.40;;;3.22;;
64282;SDS011;50497;50.720;-2.084;2022-09-13T00:33:33;7.30;;;3.15;;
64282;SDS011;50497;50.720;-2.084;2022-09-13T00:36:02;6.90;;;2.90;;
64282;SDS011;50497;50.720;-2.084;2022-09-13T00:38:29;6.97;;;3.30;;
64282;SDS011;50497;50.720;-2.084;2022-09-13T00:40:54;7.68;;;2.85;;
64282;SDS011;50497;50.720;-2.084;2022-09-13T00:43:20;5.80;;;3.13;;
64282;SDS011;50497;50.720;-2.084;2022-09-13T00:46:04;6.63;;;2.80;;
64282;SDS011;50497;50.720;-2.084;2022-09-13T00:48:30;8.80;;;3.20;;
64282;SDS011;50497;50.720;-2.084;2022-09-13T00:51:01;6.53;;;2.70;;
64282;SDS011;50497;50.720;-2.084;2022-09-13T00:53:34;6.80;;;3.08;;
64282;SDS011;50497;50.720;-2.084;2022-09-13T00:58:41;10.27;;;3.03;;
64282;SDS011;50497;50.720;-2.084;2022-09-13T01:01:12;6.30;;;3.00;;
64282;SDS011;50497;50.720;-2.084;2022-09-13T01:03:40;6.22;;;2.67;;
64282;SDS011;50497;50.720;-2.084;2022-09-13T01:06:09;7.05;;;3.00;;
64282;SDS011;50497;50.720;-2.084;2022-09-13T01:08:37;6.78;;;3.08;;
64282;SDS011;50497;50.720;-2.084;2022-09-13T01:11:09;7.85;;;2.83;;
64282;SDS011;50497;50.720;-2.084;2022-09-13T01:13:43;6.20;;;2.90;;
64282;SDS011;50497;50.720;-2.084;2022-09-13T01:16:09;9.00;;;3.15;;
64282;SDS011;50497;50.720;-2.084;2022-09-13T01:18:35;8.20;;;3.10;;
64282;SDS011;50497;50.720;-2.084;2022-09-13T01:21:10;7.88;;;3.13;;
64282;SDS011;50497;50.720;-2.084;2022-09-13T01:24:10;8.13;;;3.20;;
64282;SDS011;50497;50.720;-2.084;2022-09-13T01:32:31;6.72;;;3.22;;
64282;SDS011;50497;50.720;-2.084;2022-09-13T01:35:37;7.85;;;2.95;;
64282;SDS011;50497;50.720;-2.084;2022-09-13T01:49:32;5.93;;;3.25;;
64282;SDS011;50497;50.720;-2.084;2022-09-13T01:52:31;6.97;;;3.00;;
64282;SDS011;50497;50.720;-2.084;2022-09-13T02:01:07;6.45;;;2.67;;
64282;SDS011;50497;50.720;-2.084;2022-09-13T02:03:42;6.10;;;2.83;;
64282;SDS011;50497;50.720;-2.084;2022-09-13T02:06:16;5.88;;;2.83;;
64282;SDS011;50497;50.720;-2.084;2022-09-13T02:08:46;7.07;;;3.00;;
64282;SDS011;50497;50.720;-2.084;2022-09-13T02:11:15;8.00;;;3.08;;
64282;SDS011;50497;50.720;-2.084;2022-09-13T02:14:20;7.82;;;3.15;;
64282;SDS011;50497;50.720;-2.084;2022-09-13T02:16:48;7.75;;;3.00;;
64282;SDS011;50497;50.720;-2.084;2022-09-13T02:24:44;9.90;;;3.30;;
64282;SDS011;50497;50.720;-2.084;2022-09-13T02:27:23;6.15;;;3.03;;
64282;SDS011;50497;50.720;-2.084;2022-09-13T02:29:58;6.82;;;3.40;;
64282;SDS011;50497;50.720;-2.084;2022-09-13T02:32:41;6.43;;;2.80;;
64282;SDS011;50497;50.720;-2.084;2022-09-13T02:35:18;8.73;;;3.05;;
64282;SDS011;50497;50.720;-2.084;2022-09-13T02:37:50;6.63;;;2.85;;
64282;SDS011;50497;50.720;-2.084;2022-09-13T02:40:22;7.20;;;3.00;;
64282;SDS011;50497;50.720;-2.084;2022-09-13T02:42:57;7.28;;;3.03;;
64282;SDS011;50497;50.720;-2.084;2022-09-13T02:45:27;7.60;;;3.60;;
64282;SDS011;50497;50.720;-2.084;2022-09-13T02:48:03;6.15;;;2.80;;
64282;SDS011;50497;50.720;-2.084;2022-09-13T02:50:44;6.65;;;3.10;;
64282;SDS011;50497;50.720;-2.084;2022-09-13T02:56:04;7.78;;;3.10;;
64282;SDS011;50497;50.720;-2.084;2022-09-13T02:58:52;5.65;;;2.75;;
64282;SDS011;50497;50.720;-2.084;2022-09-13T03:01:25;6.88;;;3.28;;
64282;SDS011;50497;50.720;-2.084;2022-09-13T03:03:51;5.40;;;2.60;;
64282;SDS011;50497;50.720;-2.084;2022-09-13T03:06:24;6.57;;;2.70;;
64282;SDS011;50497;50.720;-2.084;2022-09-13T03:08:54;7.63;;;3.20;;
64282;SDS011;50497;50.720;-2.084;2022-09-13T03:20:15;6.95;;;2.70;;
64282;SDS011;50497;50.720;-2.084;2022-09-13T03:23:09;6.43;;;2.72;;
64282;SDS011;50497;50.720;-2.084;2022-09-13T03:28:44;6.95;;;3.05;;
64282;SDS011;50497;50.720;-2.084;2022-09-13T03:31:27;7.55;;;3.38;;
64282;SDS011;50497;50.720;-2.084;2022-09-13T03:36:43;9.80;;;3.58;;
64282;SDS011;50497;50.720;-2.084;2022-09-13T03:39:23;8.32;;;3.72;;
64282;SDS011;50497;50.720;-2.084;2022-09-13T03:42:25;8.57;;;3.97;;
64282;SDS011;50497;50.720;-2.084;2022-09-13T03:44:59;9.30;;;4.40;;
64282;SDS011;50497;50.720;-2.084;2022-09-13T03:47:28;10.23;;;4.82;;
64282;SDS011;50497;50.720;-2.084;2022-09-13T03:49:57;8.95;;;4.70;;
64282;SDS011;50497;50.720;-2.084;2022-09-13T03:52:24;9.50;;;4.68;;
64282;SDS011;50497;50.720;-2.084;2022-09-13T03:54:54;10.85;;;5.20;;
64282;SDS011;50497;50.720;-2.084;2022-09-13T03:59:50;11.48;;;5.43;;
64282;SDS011;50497;50.720;-2.084;2022-09-13T04:02:21;10.85;;;5.70;;
64282;SDS011;50497;50.720;-2.084;2022-09-13T04:04:55;8.85;;;4.85;;
64282;SDS011;50497;50.720;-2.084;2022-09-13T04:09:47;12.07;;;5.55;;
64282;SDS011;50497;50.720;-2.084;2022-09-13T04:12:17;11.77;;;5.78;;
64282;SDS011;50497;50.720;-2.084;2022-09-13T04:14:43;12.80;;;6.10;;
64282;SDS011;50497;50.720;-2.084;2022-09-13T04:17:10;11.13;;;5.90;;
64282;SDS011;50497;50.720;-2.084;2022-09-13T04:19:39;9.73;;;5.70;;
64282;SDS011;50497;50.720;-2.084;2022-09-13T04:22:08;12.18;;;6.13;;
64282;SDS011;50497;50.720;-2.084;2022-09-13T04:24:34;11.20;;;6.60;;
64282;SDS011;50497;50.720;-2.084;2022-09-13T04:27:00;12.05;;;5.88;;
64282;SDS011;50497;50.720;-2.084;2022-09-13T04:29:26;11.82;;;6.57;;
64282;SDS011;50497;50.720;-2.084;2022-09-13T04:31:53;12.73;;;6.72;;
64282;SDS011;50497;50.720;-2.084;2022-09-13T04:34:19;12.68;;;6.65;;
64282;SDS011;50497;50.720;-2.084;2022-09-13T04:36:49;11.68;;;6.68;;
64282;SDS011;50497;50.720;-2.084;2022-09-13T04:39:21;11.25;;;6.10;;
64282;SDS011;50497;50.720;-2.084;2022-09-13T04:41:47;11.95;;;6.63;;
64282;SDS011;50497;50.720;-2.084;2022-09-13T04:46:40;12.30;;;6.75;;
64282;SDS011;50497;50.720;-2.084;2022-09-13T04:49:08;14.27;;;7.43;;
64282;SDS011;50497;50.720;-2.084;2022-09-13T04:51:38;12.60;;;7.15;;
64282;SDS011;50497;50.720;-2.084;2022-09-13T04:54:04;15.60;;;7.63;;
64282;SDS011;50497;50.720;-2.084;2022-09-13T04:58:55;15.95;;;7.85;;
64282;SDS011;50497;50.720;-2.084;2022-09-13T05:01:22;13.00;;;7.38;;
64282;SDS011;50497;50.720;-2.084;2022-09-13T05:03:51;13.10;;;7.00;;
64282;SDS011;50497;50.720;-2.084;2022-09-13T05:08:44;14.77;;;7.40;;
64282;SDS011;50497;50.720;-2.084;2022-09-13T05:11:13;13.45;;;7.70;;
64282;SDS011;50497;50.720;-2.084;2022-09-13T05:13:39;15.65;;;8.02;;
64282;SDS011;50497;50.720;-2.084;2022-09-13T05:16:05;18.65;;;8.95;;
64282;SDS011;50497;50.720;-2.084;2022-09-13T05:18:32;16.42;;;7.57;;
64282;SDS011;50497;50.720;-2.084;2022-09-13T05:21:00;15.65;;;8.55;;
64282;SDS011;50497;50.720;-2.084;2022-09-13T05:23:27;15.85;;;8.27;;
64282;SDS011;50497;50.720;-2.084;2022-09-13T05:25:58;15.40;;;9.05;;
64282;SDS011;50497;50.720;-2.084;2022-09-13T05:28:28;15.50;;;8.48;;
64282;SDS011;50497;50.720;-2.084;2022-09-13T05:33:41;13.88;;;7.05;;
64282;SDS011;50497;50.720;-2.084;2022-09-13T05:36:08;14.00;;;8.10;;
64282;SDS011;50497;50.720;-2.084;2022-09-13T05:38:33;12.98;;;7.57;;
64282;SDS011;50497;50.720;-2.084;2022-09-13T05:41:00;13.32;;;6.72;;
64282;SDS011;50497;50.720;-2.084;2022-09-13T05:43:28;12.98;;;7.15;;
64282;SDS011;50497;50.720;-2.084;2022-09-13T05:48:48;14.40;;;6.80;;
64282;SDS011;50497;50.720;-2.084;2022-09-13T05:51:18;11.60;;;5.90;;
64282;SDS011;50497;50.720;-2.084;2022-09-13T05:53:46;9.80;;;5.00;;
64282;SDS011;50497;50.720;-2.084;2022-09-13T05:56:25;10.13;;;5.18;;
64282;SDS011;50497;50.720;-2.084;2022-09-13T05:58:56;8.95;;;4.60;;
64282;SDS011;50497;50.720;-2.084;2022-09-13T06:01:23;9.25;;;4.32;;
64282;SDS011;50497;50.720;-2.084;2022-09-13T06:03:54;10.18;;;5.03;;
64282;SDS011;50497;50.720;-2.084;2022-09-13T06:06:22;9.65;;;4.68;;
64282;SDS011;50497;50.720;-2.084;2022-09-13T06:08:51;8.02;;;3.67;;
64282;SDS011;50497;50.720;-2.084;2022-09-13T06:11:21;8.07;;;4.00;;
64282;SDS011;50497;50.720;-2.084;2022-09-13T06:13:48;7.13;;;3.25;;
64282;SDS011;50497;50.720;-2.084;2022-09-13T06:16:15;7.40;;;4.30;;
64282;SDS011;50497;50.720;-2.084;2022-09-13T06:18:41;8.27;;;3.50;;
64282;SDS011;50497;50.720;-2.084;2022-09-13T06:21:14;7.82;;;3.80;;
64282;SDS011;50497;50.720;-2.084;2022-09-13T06:23:45;7.25;;;3.65;;
64282;SDS011;50497;50.720;-2.084;2022-09-13T06:26:19;9.75;;;3.97;;
64282;SDS011;50497;50.720;-2.084;2022-09-13T06:28:51;8.73;;;3.78;;
64282;SDS011;50497;50.720;-2.084;2022-09-13T06:31:21;5.78;;;2.85;;
64282;SDS011;50497;50.720;-2.084;2022-09-13T06:33:53;8.50;;;3.65;;
64282;SDS011;50497;50.720;-2.084;2022-09-13T06:36:22;7.72;;;3.85;;
64282;SDS011;50497;50.720;-2.084;2022-09-13T06:38:51;8.00;;;3.63;;
64282;SDS011;50497;50.720;-2.084;2022-09-13T06:41:17;8.27;;;3.70;;
64282;SDS011;50497;50.720;-2.084;2022-09-13T06:43:45;8.18;;;3.83;;
64282;SDS011;50497;50.720;-2.084;2022-09-13T06:46:16;8.40;;;3.88;;
64282;SDS011;50497;50.720;-2.084;2022-09-13T06:48:44;7.72;;;3.80;;
64282;SDS011;50497;50.720;-2.084;2022-09-13T06:51:17;7.13;;;3.30;;
64282;SDS011;50497;50.720;-2.084;2022-09-13T06:53:44;7.25;;;3.45;;
64282;SDS011;50497;50.720;-2.084;2022-09-13T06:56:12;7.90;;;3.67;;
64282;SDS011;50497;50.720;-2.084;2022-09-13T06:58:44;7.95;;;3.40;;
64282;SDS011;50497;50.720;-2.084;2022-09-13T07:03:42;6.50;;;3.20;;
64282;SDS011;50497;50.720;-2.084;2022-09-13T07:06:31;6.53;;;3.38;;
64282;SDS011;50497;50.720;-2.084;2022-09-13T07:08:58;6.95;;;3.40;;
64282;SDS011;50497;50.720;-2.084;2022-09-13T07:11:25;6.05;;;3.03;;
64282;SDS011;50497;50.720;-2.084;2022-09-13T07:13:56;6.38;;;3.30;;
64282;SDS011;50497;50.720;-2.084;2022-09-13T07:16:27;6.97;;;3.22;;
64282;SDS011;50497;50.720;-2.084;2022-09-13T07:18:58;6.40;;;3.22;;
64282;SDS011;50497;50.720;-2.084;2022-09-13T07:21:30;7.03;;;3.50;;
64282;SDS011;50497;50.720;-2.084;2022-09-13T07:23:56;6.43;;;3.00;;
64282;SDS011;50497;50.720;-2.084;2022-09-13T07:26:23;6.88;;;3.58;;
64282;SDS011;50497;50.720;-2.084;2022-09-13T07:28:53;6.47;;;3.10;;
64282;SDS011;50497;50.720;-2.084;2022-09-13T07:31:21;8.23;;;3.67;;
64282;SDS011;50497;50.720;-2.084;2022-09-13T07:34:02;7.15;;;3.38;;
64282;SDS011;50497;50.720;-2.084;2022-09-13T07:36:30;8.05;;;3.60;;
64282;SDS011;50497;50.720;-2.084;2022-09-13T07:38:57;8.73;;;3.88;;
64282;SDS011;50497;50.720;-2.084;2022-09-13T07:41:24;7.55;;;3.60;;
64282;SDS011;50497;50.720;-2.084;2022-09-13T07:43:50;7.15;;;3.78;;
64282;SDS011;50497;50.720;-2.084;2022-09-13T07:46:21;8.88;;;3.63;;
64282;SDS011;50497;50.720;-2.084;2022-09-13T07:48:48;8.18;;;3.83;;
64282;SDS011;50497;50.720;-2.084;2022-09-13T07:51:17;7.70;;;3.60;;
64282;SDS011;50497;50.720;-2.084;2022-09-13T07:53:45;7.75;;;3.53;;
64282;SDS011;50497;50.720;-2.084;2022-09-13T07:56:19;7.15;;;3.83;;
64282;SDS011;50497;50.720;-2.084;2022-09-13T07:58:47;7.38;;;3.50;;
64282;SDS011;50497;50.720;-2.084;2022-09-13T08:01:56;7.40;;;3.80;;
64282;SDS011;50497;50.720;-2.084;2022-09-13T08:04:06;7.30;;;3.80;;
64282;SDS011;50497;50.720;-2.084;2022-09-13T08:06:35;8.25;;;3.75;;
64282;SDS011;50497;50.720;-2.084;2022-09-13T08:09:02;7.97;;;3.97;;
64282;SDS011;50497;50.720;-2.084;2022-09-13T08:11:39;8.23;;;4.18;;
64282;SDS011;50497;50.720;-2.084;2022-09-13T08:14:11;8.38;;;3.90;;
64282;SDS011;50497;50.720;-2.084;2022-09-13T08:16:38;8.60;;;4.22;;
64282;SDS011;50497;50.720;-2.084;2022-09-13T08:19:04;9.20;;;4.70;;
64282;SDS011;50497;50.720;-2.084;2022-09-13T08:23:57;8.23;;;4.00;;
64282;SDS011;50497;50.720;-2.084;2022-09-13T08:26:25;8.98;;;4.40;;
64282;SDS011;50497;50.720;-2.084;2022-09-13T08:28:54;9.02;;;4.40;;
64282;SDS011;50497;50.720;-2.084;2022-09-13T08:33:51;8.88;;;4.35;;
64282;SDS011;50497;50.720;-2.084;2022-09-13T08:36:18;7.45;;;3.83;;
64282;SDS011;50497;50.720;-2.084;2022-09-13T08:38:47;8.13;;;3.97;;
64282;SDS011;50497;50.720;-2.084;2022-09-13T08:41:20;9.15;;;4.43;;
64282;SDS011;50497;50.720;-2.084;2022-09-13T08:43:58;8.23;;;4.22;;
64282;SDS011;50497;50.720;-2.084;2022-09-13T08:46:46;11.18;;;4.38;;
64282;SDS011;50497;50.720;-2.084;2022-09-13T08:52:46;10.98;;;4.40;;
64282;SDS011;50497;50.720;-2.084;2022-09-13T08:55:01;7.97;;;4.13;;
64282;SDS011;50497;50.720;-2.084;2022-09-13T08:57:48;8.07;;;3.35;;
64282;SDS011;50497;50.720;-2.084;2022-09-13T09:00:20;10.32;;;4.57;;
64282;SDS011;50497;50.720;-2.084;2022-09-13T09:03:18;9.35;;;4.80;;
64282;SDS011;50497;50.720;-2.084;2022-09-13T09:05:53;9.75;;;4.80;;
64282;SDS011;50497;50.720;-2.084;2022-09-13T09:08:23;10.43;;;4.88;;
64282;SDS011;50497;50.720;-2.084;2022-09-13T09:10:55;9.73;;;4.60;;
64282;SDS011;50497;50.720;-2.084;2022-09-13T09:13:28;9.68;;;4.65;;
64282;SDS011;50497;50.720;-2.084;2022-09-13T09:16:00;8.65;;;4.25;;
64282;SDS011;50497;50.720;-2.084;2022-09-13T09:20:58;11.25;;;5.40;;
64282;SDS011;50497;50.720;-2.084;2022-09-13T09:28:39;9.98;;;4.80;;
64282;SDS011;50497;50.720;-2.084;2022-09-13T09:33:52;9.93;;;5.28;;
64282;SDS011;50497;50.720;-2.084;2022-09-13T09:39:06;9.70;;;5.30;;
64282;SDS011;50497;50.720;-2.084;2022-09-13T09:41:40;12.93;;;5.40;;
64282;SDS011;50497;50.720;-2.084;2022-09-13T09:46:34;11.55;;;5.20;;
64282;SDS011;50497;50.720;-2.084;2022-09-13T09:52:02;10.25;;;5.60;;
64282;SDS011;50497;50.720;-2.084;2022-09-13T09:54:32;12.55;;;6.57;;
64282;SDS011;50497;50.720;-2.084;2022-09-13T09:56:59;12.15;;;6.53;;
64282;SDS011;50497;50.720;-2.084;2022-09-13T09:59:27;11.85;;;6.50;;
64282;SDS011;50497;50.720;-2.084;2022-09-13T10:01:56;13.60;;;7.20;;
64282;SDS011;50497;50.720;-2.084;2022-09-13T10:04:24;15.63;;;8.25;;
64282;SDS011;50497;50.720;-2.084;2022-09-13T10:07:06;16.33;;;8.23;;
64282;SDS011;50497;50.720;-2.084;2022-09-13T10:09:37;14.95;;;8.02;;
64282;SDS011;50497;50.720;-2.084;2022-09-13T10:12:03;14.13;;;7.50;;
64282;SDS011;50497;50.720;-2.084;2022-09-13T10:14:34;14.55;;;7.88;;
64282;SDS011;50497;50.720;-2.084;2022-09-13T10:19:58;13.25;;;7.25;;
64282;SDS011;50497;50.720;-2.084;2022-09-13T10:22:44;13.82;;;6.93;;
64282;SDS011;50497;50.720;-2.084;2022-09-13T10:25:17;13.70;;;7.00;;
64282;SDS011;50497;50.720;-2.084;2022-09-13T10:27:48;14.43;;;7.10;;
64282;SDS011;50497;50.720;-2.084;2022-09-13T10:30:38;12.45;;;6.60;;
64282;SDS011;50497;50.720;-2.084;2022-09-13T10:33:05;14.18;;;7.57;;
64282;SDS011;50497;50.720;-2.084;2022-09-13T10:35:38;12.73;;;7.47;;
64282;SDS011;50497;50.720;-2.084;2022-09-13T10:38:03;13.38;;;7.63;;
64282;SDS011;50497;50.720;-2.084;2022-09-13T10:40:40;15.27;;;8.50;;
64282;SDS011;50497;50.720;-2.084;2022-09-13T10:43:14;11.68;;;6.88;;
64282;SDS011;50497;50.720;-2.084;2022-09-13T10:45:44;13.18;;;7.20;;
64282;SDS011;50497;50.720;-2.084;2022-09-13T10:48:16;15.02;;;7.53;;
64282;SDS011;50497;50.720;-2.084;2022-09-13T10:53:45;12.60;;;7.22;;
64282;SDS011;50497;50.720;-2.084;2022-09-13T11:09:51;13.23;;;6.40;;
64282;SDS011;50497;50.720;-2.084;2022-09-13T11:12:30;13.60;;;7.93;;
64282;SDS011;50497;50.720;-2.084;2022-09-13T11:39:37;15.10;;;8.30;;
64282;SDS011;50497;50.720;-2.084;2022-09-13T11:54:04;16.27;;;8.85;;
64282;SDS011;50497;50.720;-2.084;2022-09-13T11:56:26;14.60;;;8.35;;
64282;SDS011;50497;50.720;-2.084;2022-09-13T11:59:00;14.30;;;7.45;;
64282;SDS011;50497;50.720;-2.084;2022-09-13T12:01:48;14.23;;;7.43;;
64282;SDS011;50497;50.720;-2.084;2022-09-13T12:04:24;14.15;;;7.82;;
64282;SDS011;50497;50.720;-2.084;2022-09-13T12:06:59;14.23;;;8.73;;
64282;SDS011;50497;50.720;-2.084;2022-09-13T12:09:28;16.33;;;8.75;;
64282;SDS011;50497;50.720;-2.084;2022-09-13T12:12:10;13.90;;;7.97;;
64282;SDS011;50497;50.720;-2.084;2022-09-13T12:14:48;13.77;;;8.38;;
64282;SDS011;50497;50.720;-2.084;2022-09-13T12:19:58;16.23;;;9.43;;
64282;SDS011;50497;50.720;-2.084;2022-09-13T12:22:26;15.27;;;8.95;;
64282;SDS011;50497;50.720;-2.084;2022-09-13T12:25:01;14.43;;;7.53;;
64282;SDS011;50497;50.720;-2.084;2022-09-13T12:30:16;15.30;;;9.13;;
64282;SDS011;50497;50.720;-2.084;2022-09-13T12:32:44;15.57;;;8.52;;
64282;SDS011;50497;50.720;-2.084;2022-09-13T12:35:27;14.93;;;8.93;;
64282;SDS011;50497;50.720;-2.084;2022-09-13T12:49:03;13.70;;;7.95;;
64282;SDS011;50497;50.720;-2.084;2022-09-13T12:57:45;17.10;;;9.43;;
64282;SDS011;50497;50.720;-2.084;2022-09-13T13:00:43;18.33;;;9.15;;
64282;SDS011;50497;50.720;-2.084;2022-09-13T13:03:24;15.57;;;8.88;;
64282;SDS011;50497;50.720;-2.084;2022-09-13T13:08:51;14.55;;;8.75;;
64282;SDS011;50497;50.720;-2.084;2022-09-13T13:11:27;14.43;;;8.48;;
64282;SDS011;50497;50.720;-2.084;2022-09-13T13:18:49;16.05;;;8.48;;
64282;SDS011;50497;50.720;-2.084;2022-09-13T13:31:41;13.07;;;8.05;;
64282;SDS011;50497;50.720;-2.084;2022-09-13T14:19:49;13.32;;;7.47;;
64282;SDS011;50497;50.720;-2.084;2022-09-13T14:24:51;12.15;;;5.82;;
64282;SDS011;50497;50.720;-2.084;2022-09-13T14:27:34;13.63;;;7.72;;
64282;SDS011;50497;50.720;-2.084;2022-09-13T14:30:03;15.55;;;8.85;;
64282;SDS011;50497;50.720;-2.084;2022-09-13T14:32:44;15.40;;;8.38;;
64282;SDS011;50497;50.720;-2.084;2022-09-13T14:37:48;15.15;;;7.65;;
64282;SDS011;50497;50.720;-2.084;2022-09-13T14:40:18;15.07;;;8.48;;
64282;SDS011;50497;50.720;-2.084;2022-09-13T14:42:49;13.32;;;7.15;;
64282;SDS011;50497;50.720;-2.084;2022-09-13T14:50:34;14.63;;;7.47;;
64282;SDS011;50497;50.720;-2.084;2022-09-13T14:53:05;12.85;;;6.57;;
64282;SDS011;50497;50.720;-2.084;2022-09-13T14:55:36;15.70;;;7.60;;
64282;SDS011;50497;50.720;-2.084;2022-09-13T15:01:00;14.40;;;8.20;;
64282;SDS011;50497;50.720;-2.084;2022-09-13T15:03:28;17.00;;;9.10;;
64282;SDS011;50497;50.720;-2.084;2022-09-13T15:05:55;14.23;;;8.48;;
64282;SDS011;50497;50.720;-2.084;2022-09-13T15:08:26;16.33;;;8.95;;
64282;SDS011;50497;50.720;-2.084;2022-09-13T15:11:15;16.77;;;9.70;;
64282;SDS011;50497;50.720;-2.084;2022-09-13T15:13:59;15.73;;;8.43;;
64282;SDS011;50497;50.720;-2.084;2022-09-13T15:16:50;16.48;;;9.18;;
64282;SDS011;50497;50.720;-2.084;2022-09-13T15:21:51;19.75;;;9.50;;
64282;SDS011;50497;50.720;-2.084;2022-09-13T15:24:28;16.45;;;8.57;;
64282;SDS011;50497;50.720;-2.084;2022-09-13T15:27:06;16.55;;;8.20;;
64282;SDS011;50497;50.720;-2.084;2022-09-13T15:29:40;20.35;;;8.13;;
64282;SDS011;50497;50.720;-2.084;2022-09-13T15:32:40;13.73;;;7.35;;
64282;SDS011;50497;50.720;-2.084;2022-09-13T15:35:17;16.23;;;7.95;;
64282;SDS011;50497;50.720;-2.084;2022-09-13T15:37:56;15.95;;;8.05;;
64282;SDS011;50497;50.720;-2.084;2022-09-13T15:40:41;14.68;;;7.03;;
64282;SDS011;50497;50.720;-2.084;2022-09-13T15:43:08;13.52;;;7.45;;
64282;SDS011;50497;50.720;-2.084;2022-09-13T15:45:34;17.08;;;8.05;;
64282;SDS011;50497;50.720;-2.084;2022-09-13T15:47:59;16.13;;;8.30;;
64282;SDS011;50497;50.720;-2.084;2022-09-13T15:50:26;14.27;;;8.15;;
64282;SDS011;50497;50.720;-2.084;2022-09-13T15:52:55;13.98;;;7.40;;
64282;SDS011;50497;50.720;-2.084;2022-09-13T15:55:22;17.75;;;7.88;;
64282;SDS011;50497;50.720;-2.084;2022-09-13T15:57:49;16.27;;;7.93;;
64282;SDS011;50497;50.720;-2.084;2022-09-13T16:00:16;16.70;;;8.13;;
64282;SDS011;50497;50.720;-2.084;2022-09-13T16:02:44;15.02;;;7.53;;
64282;SDS011;50497;50.720;-2.084;2022-09-13T16:05:10;19.65;;;9.10;;
64282;SDS011;50497;50.720;-2.084;2022-09-13T16:10:02;16.88;;;8.30;;
64282;SDS011;50497;50.720;-2.084;2022-09-13T16:12:28;16.15;;;8.43;;
64282;SDS011;50497;50.720;-2.084;2022-09-13T16:14:53;17.63;;;9.30;;
64282;SDS011;50497;50.720;-2.084;2022-09-13T16:17:20;17.23;;;8.98;;
64282;SDS011;50497;50.720;-2.084;2022-09-13T16:19:48;18.52;;;9.30;;
64282;SDS011;50497;50.720;-2.084;2022-09-13T16:22:13;18.90;;;9.45;;
64282;SDS011;50497;50.720;-2.084;2022-09-13T16:24:39;18.10;;;9.32;;
64282;SDS011;50497;50.720;-2.084;2022-09-13T16:27:05;17.75;;;9.45;;
64282;SDS011;50497;50.720;-2.084;2022-09-13T16:29:31;17.80;;;9.60;;
64282;SDS011;50497;50.720;-2.084;2022-09-13T16:31:56;19.98;;;10.70;;
64282;SDS011;50497;50.720;-2.084;2022-09-13T16:34:24;17.15;;;8.85;;
64282;SDS011;50497;50.720;-2.084;2022-09-13T16:36:50;21.05;;;10.63;;
64282;SDS011;50497;50.720;-2.084;2022-09-13T16:39:15;21.58;;;10.30;;
64282;SDS011;50497;50.720;-2.084;2022-09-13T16:41:41;18.73;;;10.15;;
64282;SDS011;50497;50.720;-2.084;2022-09-13T16:44:06;17.88;;;9.43;;
64282;SDS011;50497;50.720;-2.084;2022-09-13T16:46:43;22.95;;;11.52;;
64282;SDS011;50497;50.720;-2.084;2022-09-13T16:49:09;22.48;;;11.68;;
64282;SDS011;50497;50.720;-2.084;2022-09-13T16:51:35;21.83;;;10.82;;
64282;SDS011;50497;50.720;-2.084;2022-09-13T16:54:01;23.00;;;11.05;;
64282;SDS011;50497;50.720;-2.084;2022-09-13T16:56:27;20.33;;;10.52;;
64282;SDS011;50497;50.720;-2.084;2022-09-13T16:58:54;21.08;;;10.27;;
64282;SDS011;50497;50.720;-2.084;2022-09-13T17:01:24;22.75;;;10.93;;
64282;SDS011;50497;50.720;-2.084;2022-09-13T17:03:51;21.98;;;10.88;;
64282;SDS011;50497;50.720;-2.084;2022-09-13T17:06:18;21.58;;;10.68;;
64282;SDS011;50497;50.720;-2.084;2022-09-13T17:08:46;22.05;;;10.88;;
64282;SDS011;50497;50.720;-2.084;2022-09-13T17:11:17;26.23;;;11.75;;
64282;SDS011;50497;50.720;-2.084;2022-09-13T17:13:45;23.92;;;11.32;;
64282;SDS011;50497;50.720;-2.084;2022-09-13T17:16:22;21.30;;;11.07;;
64282;SDS011;50497;50.720;-2.084;2022-09-13T17:18:50;26.00;;;11.98;;
64282;SDS011;50497;50.720;-2.084;2022-09-13T17:21:16;21.38;;;11.23;;
64282;SDS011;50497;50.720;-2.084;2022-09-13T17:23:42;20.45;;;10.75;;
64282;SDS011;50497;50.720;-2.084;2022-09-13T17:26:08;20.67;;;10.70;;
64282;SDS011;50497;50.720;-2.084;2022-09-13T17:31:00;22.20;;;11.07;;
64282;SDS011;50497;50.720;-2.084;2022-09-13T17:33:26;20.25;;;9.43;;
64282;SDS011;50497;50.720;-2.084;2022-09-13T17:36:01;21.85;;;11.13;;
64282;SDS011;50497;50.720;-2.084;2022-09-13T17:38:28;19.77;;;11.18;;
64282;SDS011;50497;50.720;-2.084;2022-09-13T17:41:01;23.70;;;11.50;;
64282;SDS011;50497;50.720;-2.084;2022-09-13T17:43:35;21.08;;;11.55;;
64282;SDS011;50497;50.720;-2.084;2022-09-13T17:46:05;18.52;;;9.65;;
64282;SDS011;50497;50.720;-2.084;2022-09-13T17:48:31;22.85;;;11.90;;
64282;SDS011;50497;50.720;-2.084;2022-09-13T17:51:14;24.80;;;12.23;;
64282;SDS011;50497;50.720;-2.084;2022-09-13T17:53:46;25.15;;;12.77;;
64282;SDS011;50497;50.720;-2.084;2022-09-13T17:56:20;23.23;;;12.27;;
64282;SDS011;50497;50.720;-2.084;2022-09-13T17:58:49;28.23;;;14.13;;
64282;SDS011;50497;50.720;-2.084;2022-09-13T18:01:15;23.85;;;12.63;;
64282;SDS011;50497;50.720;-2.084;2022-09-13T18:03:41;27.58;;;12.57;;
64282;SDS011;50497;50.720;-2.084;2022-09-13T18:06:07;25.00;;;12.35;;
64282;SDS011;50497;50.720;-2.084;2022-09-13T18:08:34;25.50;;;13.00;;
64282;SDS011;50497;50.720;-2.084;2022-09-13T18:11:05;23.67;;;10.82;;
64282;SDS011;50497;50.720;-2.084;2022-09-13T18:13:38;28.00;;;14.82;;
64282;SDS011;50497;50.720;-2.084;2022-09-13T18:16:05;27.88;;;14.15;;
64282;SDS011;50497;50.720;-2.084;2022-09-13T18:18:35;27.77;;;13.27;;
64282;SDS011;50497;50.720;-2.084;2022-09-13T18:21:02;27.70;;;14.30;;
64282;SDS011;50497;50.720;-2.084;2022-09-13T18:23:28;26.58;;;13.88;;
64282;SDS011;50497;50.720;-2.084;2022-09-13T18:25:58;27.98;;;14.82;;
64282;SDS011;50497;50.720;-2.084;2022-09-13T18:28:28;27.90;;;14.05;;
64282;SDS011;50497;50.720;-2.084;2022-09-13T18:30:55;24.52;;;13.00;;
64282;SDS011;50497;50.720;-2.084;2022-09-13T18:33:23;28.77;;;14.85;;
64282;SDS011;50497;50.720;-2.084;2022-09-13T18:35:59;26.98;;;14.32;;
64282;SDS011;50497;50.720;-2.084;2022-09-13T18:38:26;30.23;;;15.02;;
64282;SDS011;50497;50.720;-2.084;2022-09-13T18:41:00;26.23;;;13.73;;
64282;SDS011;50497;50.720;-2.084;2022-09-13T18:43:26;32.42;;;15.15;;
64282;SDS011;50497;50.720;-2.084;2022-09-13T18:45:55;26.05;;;12.95;;
64282;SDS011;50497;50.720;-2.084;2022-09-13T18:48:28;28.63;;;15.30;;
64282;SDS011;50497;50.720;-2.084;2022-09-13T18:51:11;32.72;;;15.30;;
64282;SDS011;50497;50.720;-2.084;2022-09-13T18:53:41;27.30;;;14.30;;
64282;SDS011;50497;50.720;-2.084;2022-09-13T18:56:11;33.72;;;16.33;;
64282;SDS011;50497;50.720;-2.084;2022-09-13T18:58:39;30.35;;;15.00;;
64282;SDS011;50497;50.720;-2.084;2022-09-13T19:01:06;33.13;;;16.63;;
64282;SDS011;50497;50.720;-2.084;2022-09-13T19:03:46;32.15;;;15.45;;
64282;SDS011;50497;50.720;-2.084;2022-09-13T19:06:27;26.20;;;12.82;;
64282;SDS011;50497;50.720;-2.084;2022-09-13T19:09:01;29.70;;;14.60;;